createdAt,value
2023-05-21T00:02:18.613Z,48.13
2023-05-21T00:04:53.068Z,48.26
2023-05-21T00:07:25.713Z,48.48
2023-05-21T00:09:58.614Z,48.34
2023-05-21T00:12:32.704Z,48.53
2023-05-21T00:15:05.799Z,48.39
2023-05-21T00:17:38.523Z,48.51
2023-05-21T00:20:12.839Z,48.59
2023-05-21T00:22:45.529Z,48.53
2023-05-21T00:25:18.341Z,48.47
2023-05-21T00:27:52.412Z,48.51
2023-05-21T00:30:25.126Z,48.44
2023-05-21T00:32:58.881Z,48.52
2023-05-21T00:35:31.919Z,48.60
2023-05-21T00:38:04.672Z,48.71
2023-05-21T00:40:37.406Z,48.62
2023-05-21T00:43:11.566Z,48.83
2023-05-21T00:45:46.825Z,48.70
2023-05-21T00:48:19.718Z,48.85
2023-05-21T00:50:52.921Z,48.73
2023-05-21T00:53:25.776Z,48.82
2023-05-21T00:55:58.787Z,48.68
2023-05-21T00:58:33.576Z,48.94
2023-05-21T01:01:06.957Z,48.72
2023-05-21T01:03:41.069Z,48.95
2023-05-21T01:06:14.390Z,48.81
2023-05-21T01:08:47.100Z,48.97
2023-05-21T01:11:20.176Z,49.00
2023-05-21T01:13:54.194Z,49.07
2023-05-21T01:16:26.936Z,48.92
2023-05-21T01:18:59.908Z,48.96
2023-05-21T01:21:35.444Z,49.03
2023-05-21T01:24:09.488Z,49.09
2023-05-21T01:26:44.124Z,48.91
2023-05-21T01:29:16.979Z,49.02
2023-05-21T01:31:57.564Z,49.11
2023-05-21T01:34:33.015Z,48.99
2023-05-21T01:37:10.077Z,48.92
2023-05-21T01:39:45.802Z,49.10
2023-05-21T01:42:19.525Z,49.21
2023-05-21T01:44:52.852Z,49.24
2023-05-21T01:47:25.670Z,49.27
2023-05-21T01:49:58.593Z,48.93
2023-05-21T01:52:31.346Z,49.16
2023-05-21T01:55:05.832Z,49.23
2023-05-21T01:57:38.716Z,49.38
2023-05-21T02:00:12.450Z,49.40
2023-05-21T02:02:52.514Z,49.31
2023-05-21T02:05:25.384Z,49.32
2023-05-21T02:08:00.631Z,49.32
2023-05-21T02:10:35.687Z,49.60
2023-05-21T02:13:08.408Z,49.46
2023-05-21T02:15:41.453Z,49.76
2023-05-21T02:18:16.992Z,49.80
2023-05-21T02:20:49.757Z,49.67
2023-05-21T02:23:22.743Z,49.81
2023-05-21T02:25:56.754Z,50.01
2023-05-21T02:28:30.255Z,50.03
2023-05-21T02:31:03.053Z,49.68
2023-05-21T02:33:35.842Z,49.91
2023-05-21T02:36:12.927Z,49.98
2023-05-21T02:38:46.646Z,50.06
2023-05-21T02:41:21.191Z,49.98
2023-05-21T02:43:54.036Z,50.07
2023-05-21T02:46:26.997Z,50.00
2023-05-21T02:48:59.821Z,50.02
2023-05-21T02:51:32.712Z,49.82
2023-05-21T02:54:05.637Z,50.03
2023-05-21T02:56:39.670Z,49.87
2023-05-21T02:59:12.421Z,50.00
2023-05-21T03:01:45.841Z,49.98
2023-05-21T03:04:18.576Z,49.92
2023-05-21T03:06:54.929Z,50.04
2023-05-21T03:09:27.732Z,49.97
2023-05-21T03:12:04.298Z,49.79
2023-05-21T03:14:37.041Z,49.99
2023-05-21T03:17:13.933Z,49.69
2023-05-21T03:19:46.772Z,49.93
2023-05-21T03:22:20.048Z,49.71
2023-05-21T03:24:53.406Z,49.82
2023-05-21T03:27:27.619Z,49.97
2023-05-21T03:30:01.011Z,49.75
2023-05-21T03:32:37.876Z,49.81
2023-05-21T03:35:11.666Z,49.57
2023-05-21T03:37:44.617Z,49.71
2023-05-21T03:40:17.548Z,49.63
2023-05-21T03:42:52.033Z,49.56
2023-05-21T03:45:25.293Z,49.28
2023-05-21T03:48:36.122Z,49.16
2023-05-21T03:51:09.640Z,49.13
2023-05-21T03:53:42.356Z,49.25
2023-05-21T03:56:15.193Z,49.16
2023-05-21T03:58:49.391Z,49.07
2023-05-21T04:01:22.082Z,48.84
2023-05-21T04:03:57.283Z,48.97
2023-05-21T04:06:31.329Z,48.84
2023-05-21T04:09:04.819Z,49.02
2023-05-21T04:11:37.486Z,48.76
2023-05-21T04:14:11.478Z,48.76
2023-05-21T04:16:44.870Z,48.53
2023-05-21T04:19:17.638Z,48.76
2023-05-21T04:21:52.401Z,48.55
2023-05-21T04:24:25.151Z,48.51
2023-05-21T04:27:10.021Z,48.46
2023-05-21T04:29:44.215Z,48.35
2023-05-21T04:32:18.024Z,48.25
2023-05-21T04:34:51.088Z,48.34
2023-05-21T04:37:24.721Z,48.19
2023-05-21T04:39:57.468Z,47.88
2023-05-21T04:42:33.033Z,47.92
2023-05-21T04:45:08.825Z,47.76
2023-05-21T04:47:44.838Z,47.74
2023-05-21T04:50:17.669Z,47.84
2023-05-21T04:52:50.345Z,47.60
2023-05-21T04:55:23.079Z,47.62
2023-05-21T04:57:56.031Z,47.44
2023-05-21T05:00:30.079Z,47.52
2023-05-21T05:03:02.887Z,47.41
2023-05-21T05:05:35.813Z,47.30
2023-05-21T05:08:08.897Z,47.03
2023-05-21T05:10:41.596Z,47.11
2023-05-21T05:13:14.330Z,47.03
2023-05-21T05:15:50.204Z,46.69
2023-05-21T05:18:24.061Z,46.80
2023-05-21T05:20:56.781Z,46.54
2023-05-21T05:23:30.126Z,46.25
2023-05-21T05:26:02.818Z,46.32
2023-05-21T05:28:35.519Z,46.21
2023-05-21T05:31:09.560Z,46.40
2023-05-21T05:33:42.279Z,46.37
2023-05-21T05:36:15.071Z,46.08
2023-05-21T05:38:47.773Z,46.04
2023-05-21T05:41:21.042Z,45.91
2023-05-21T05:43:55.004Z,45.82
2023-05-21T05:46:32.643Z,45.66
2023-05-21T05:49:05.342Z,45.42
2023-05-21T05:51:38.130Z,45.37
2023-05-21T05:54:11.462Z,45.19
2023-05-21T05:56:44.222Z,45.37
2023-05-21T05:59:17.159Z,45.04
2023-05-21T06:01:54.995Z,45.32
2023-05-21T06:04:30.296Z,45.11
2023-05-21T06:07:03.525Z,44.96
2023-05-21T06:09:36.233Z,44.53
2023-05-21T06:12:12.295Z,44.76
2023-05-21T06:14:49.071Z,44.46
2023-05-21T06:17:23.158Z,44.23
2023-05-21T06:19:56.780Z,44.15
2023-05-21T06:22:30.788Z,44.18
2023-05-21T06:25:04.116Z,43.90
2023-05-21T06:27:36.869Z,43.84
2023-05-21T06:30:12.625Z,44.08
2023-05-21T06:32:47.042Z,43.70
2023-05-21T06:35:21.069Z,43.81
2023-05-21T06:37:54.223Z,43.95
2023-05-21T06:40:27.043Z,43.61
2023-05-21T06:43:04.806Z,43.30
2023-05-21T06:45:56.308Z,43.39
2023-05-21T06:48:41.811Z,43.51
2023-05-21T06:51:14.595Z,42.98
2023-05-21T06:53:47.312Z,42.88
2023-05-21T06:56:22.068Z,42.74
2023-05-21T06:58:55.006Z,43.01
2023-05-21T07:01:30.976Z,42.62
2023-05-21T07:04:05.853Z,42.46
2023-05-21T07:06:38.868Z,42.58
2023-05-21T07:09:12.073Z,42.32
2023-05-21T07:11:45.321Z,42.41
2023-05-21T07:14:21.412Z,41.88
2023-05-21T07:16:54.316Z,42.03
2023-05-21T07:19:28.535Z,42.18
2023-05-21T07:22:01.415Z,41.82
2023-05-21T07:24:34.368Z,41.57
2023-05-21T07:27:14.524Z,41.22
2023-05-21T07:29:58.455Z,41.14
2023-05-21T07:32:31.505Z,41.07
2023-05-21T07:35:06.770Z,40.73
2023-05-21T07:37:40.294Z,40.95
2023-05-21T07:40:13.675Z,40.77
2023-05-21T07:42:48.163Z,40.57
2023-05-21T07:45:24.261Z,40.59
2023-05-21T07:47:57.222Z,40.36
2023-05-21T07:50:32.560Z,40.30
2023-05-21T07:53:14.690Z,39.61
2023-05-21T07:55:48.683Z,39.66
2023-05-21T07:58:25.056Z,39.87
2023-05-21T08:00:58.833Z,39.80
2023-05-21T08:03:33.867Z,39.48
2023-05-21T08:06:08.069Z,39.60
2023-05-21T08:08:40.810Z,38.96
2023-05-21T08:11:14.189Z,38.07
2023-05-21T08:13:46.861Z,37.02
2023-05-21T08:16:19.768Z,36.08
2023-05-21T08:18:55.448Z,35.12
2023-05-21T08:21:29.549Z,34.81
2023-05-21T08:24:03.014Z,34.27
2023-05-21T08:26:36.592Z,33.59
2023-05-21T08:29:09.270Z,33.11
2023-05-21T08:31:42.049Z,32.94
2023-05-21T08:34:15.222Z,32.20
2023-05-21T08:36:56.441Z,31.69
2023-05-21T08:39:55.359Z,30.71
2023-05-21T08:42:36.877Z,30.03
2023-05-21T08:45:12.411Z,28.71
2023-05-21T08:47:47.715Z,27.46
2023-05-21T08:50:23.872Z,26.71
2023-05-21T08:52:59.080Z,26.07
2023-05-21T08:55:36.519Z,25.65
2023-05-21T08:58:09.966Z,25.13
2023-05-21T09:00:43.578Z,24.91
2023-05-21T09:03:17.502Z,24.45
2023-05-21T09:05:51.221Z,23.68
2023-05-21T09:08:39.057Z,23.24
2023-05-21T09:11:33.269Z,22.87
2023-05-21T09:14:06.736Z,22.47
2023-05-21T09:16:58.155Z,22.01
2023-05-21T09:19:35.407Z,21.73
2023-05-21T09:22:08.986Z,21.81
2023-05-21T09:24:41.994Z,21.59
2023-05-21T09:27:17.980Z,21.45
2023-05-21T09:29:50.705Z,20.96
2023-05-21T09:32:26.299Z,21.21
2023-05-21T09:34:59.108Z,20.65
2023-05-21T09:37:37.693Z,20.63
2023-05-21T09:40:17.149Z,20.72
2023-05-21T09:42:53.062Z,20.80
2023-05-21T09:45:28.784Z,21.06
2023-05-21T09:48:04.612Z,21.15
2023-05-21T09:50:38.088Z,20.90
2023-05-21T09:53:13.344Z,20.98
2023-05-21T09:55:46.153Z,20.77
2023-05-21T09:58:20.252Z,21.00
2023-05-21T10:00:53.974Z,21.07
2023-05-21T10:03:29.869Z,20.61
2023-05-21T10:06:05.371Z,20.93
2023-05-21T10:08:43.117Z,21.07
2023-05-21T10:11:17.344Z,21.06
2023-05-21T10:14:05.919Z,21.07
2023-05-21T10:16:38.848Z,21.67
2023-05-21T10:19:12.269Z,22.04
2023-05-21T10:21:45.946Z,22.50
2023-05-21T10:24:19.339Z,23.30
2023-05-21T10:26:52.347Z,23.62
2023-05-21T10:29:26.852Z,24.00
2023-05-21T10:32:00.235Z,24.36
2023-05-21T10:34:34.621Z,24.40
2023-05-21T10:37:09.240Z,24.56
2023-05-21T10:39:44.000Z,24.81
2023-05-21T10:42:22.304Z,24.99
2023-05-21T10:45:03.021Z,24.82
2023-05-21T10:47:54.317Z,24.74
2023-05-21T10:50:32.651Z,24.71
2023-05-21T10:53:10.757Z,24.92
2023-05-21T10:55:54.102Z,25.03
2023-05-21T10:58:39.431Z,25.15
2023-05-21T11:01:16.420Z,25.29
2023-05-21T11:03:49.607Z,25.22
2023-05-21T11:06:26.869Z,25.44
2023-05-21T11:09:12.491Z,25.49
2023-05-21T11:11:46.275Z,25.36
2023-05-21T11:14:31.634Z,25.57
2023-05-21T11:17:11.149Z,25.59
2023-05-21T11:19:44.568Z,25.71
2023-05-21T11:22:26.666Z,25.72
2023-05-21T11:25:02.018Z,25.66
2023-05-21T11:27:37.062Z,25.63
2023-05-21T11:30:12.528Z,25.45
2023-05-21T11:33:00.131Z,25.59
2023-05-21T11:35:37.204Z,25.70
2023-05-21T11:38:10.238Z,26.01
2023-05-21T11:40:51.573Z,26.10
2023-05-21T11:43:24.348Z,26.16
2023-05-21T11:45:57.580Z,26.21
2023-05-21T11:48:33.379Z,26.38
2023-05-21T11:51:09.832Z,26.11
2023-05-21T11:53:45.615Z,26.11
2023-05-21T11:56:42.792Z,26.14
2023-05-21T11:59:18.757Z,26.38
2023-05-21T12:01:55.519Z,26.46
2023-05-21T12:04:30.736Z,26.58
2023-05-21T12:07:16.638Z,26.48
2023-05-21T12:09:50.376Z,26.59
2023-05-21T12:12:23.784Z,26.76
2023-05-21T12:14:56.991Z,26.56
2023-05-21T12:17:31.734Z,26.82
2023-05-21T12:20:10.305Z,26.80
2023-05-21T12:22:44.413Z,26.95
2023-05-21T12:25:21.008Z,26.89
2023-05-21T12:28:00.790Z,26.70
2023-05-21T12:30:36.338Z,26.76
2023-05-21T12:33:09.290Z,26.84
2023-05-21T12:35:49.425Z,26.89
2023-05-21T12:38:23.605Z,27.01
2023-05-21T12:41:06.064Z,26.95
2023-05-21T12:43:38.897Z,27.12
2023-05-21T12:46:14.584Z,27.08
2023-05-21T12:48:54.507Z,26.97
2023-05-21T12:51:29.002Z,27.00
2023-05-21T12:54:03.330Z,27.01
2023-05-21T12:56:45.328Z,27.09
2023-05-21T12:59:18.043Z,27.13
2023-05-21T13:01:51.016Z,27.01
2023-05-21T13:04:24.235Z,27.04
2023-05-21T13:06:58.245Z,27.36
2023-05-21T13:09:32.399Z,27.45
2023-05-21T13:12:05.197Z,27.22
2023-05-21T13:14:37.993Z,27.23
2023-05-21T13:17:10.754Z,27.51
2023-05-21T13:19:43.568Z,27.30
2023-05-21T13:22:16.581Z,26.97
2023-05-21T13:24:50.810Z,27.01
2023-05-21T13:27:23.654Z,27.17
2023-05-21T13:29:56.377Z,27.04
2023-05-21T13:35:21.359Z,26.92
2023-05-21T13:37:54.220Z,27.17
2023-05-21T13:40:28.276Z,27.03
2023-05-21T13:43:01.176Z,27.02
2023-05-21T13:45:34.420Z,26.84
2023-05-21T13:48:07.331Z,26.79
2023-05-21T13:50:40.174Z,26.51
2023-05-21T13:53:14.787Z,26.55
2023-05-21T13:55:48.913Z,26.36
2023-05-21T13:58:21.589Z,26.70
2023-05-21T14:00:54.301Z,26.49
2023-05-21T14:03:28.065Z,26.47
2023-05-21T14:06:00.868Z,26.37
2023-05-21T14:08:33.584Z,26.65
2023-05-21T14:11:10.267Z,26.91
2023-05-21T14:13:43.335Z,26.99
2023-05-21T14:16:19.077Z,27.00
2023-05-21T14:18:51.850Z,26.86
2023-05-21T14:21:24.996Z,27.07
2023-05-21T14:23:57.798Z,27.05
2023-05-21T14:26:31.835Z,27.23
2023-05-21T14:29:04.612Z,27.17
2023-05-21T14:31:37.842Z,27.16
2023-05-21T14:34:13.509Z,26.92
2023-05-21T14:36:46.280Z,27.24
2023-05-21T14:39:19.078Z,27.19
2023-05-21T14:41:58.116Z,27.04
2023-05-21T14:44:30.811Z,27.30
2023-05-21T14:47:03.578Z,27.36
2023-05-21T14:49:36.927Z,27.42
2023-05-21T14:52:12.039Z,27.09
2023-05-21T14:54:44.783Z,27.28
2023-05-21T14:57:18.829Z,27.53
2023-05-21T14:59:54.209Z,27.54
2023-05-21T15:02:30.189Z,27.51
2023-05-21T15:05:05.516Z,27.39
2023-05-21T15:07:38.474Z,27.49
2023-05-21T15:10:11.761Z,27.39
2023-05-21T15:12:46.165Z,27.31
2023-05-21T15:15:20.896Z,27.44
2023-05-21T15:17:54.116Z,27.23
2023-05-21T15:20:27.947Z,27.49
2023-05-21T15:23:15.214Z,27.22
2023-05-21T15:25:52.772Z,27.70
2023-05-21T15:28:26.885Z,27.63
2023-05-21T15:31:00.741Z,27.80
2023-05-21T15:33:33.513Z,27.63
2023-05-21T15:36:06.301Z,27.48
2023-05-21T15:38:39.078Z,27.64
2023-05-21T15:41:13.882Z,27.54
2023-05-21T15:43:53.159Z,27.54
2023-05-21T15:46:26.006Z,27.71
2023-05-21T15:48:58.775Z,27.91
2023-05-21T15:51:31.463Z,27.88
2023-05-21T15:54:06.620Z,27.76
2023-05-21T15:56:39.333Z,27.75
2023-05-21T15:59:14.102Z,27.76
2023-05-21T16:01:47.363Z,27.66
2023-05-21T16:04:22.881Z,27.89
2023-05-21T16:06:55.607Z,27.82
2023-05-21T16:09:28.424Z,27.77
2023-05-21T16:12:01.119Z,27.87
2023-05-21T16:14:35.419Z,28.10
2023-05-21T16:17:08.144Z,28.15
2023-05-21T16:19:40.947Z,27.87
2023-05-21T16:22:13.626Z,27.84
2023-05-21T16:24:46.330Z,27.96
2023-05-21T16:27:19.118Z,27.80
2023-05-21T16:29:53.126Z,27.93
2023-05-21T16:32:25.954Z,27.96
2023-05-21T16:34:58.656Z,28.02
2023-05-21T16:37:31.359Z,28.03
2023-05-21T16:40:04.752Z,28.11
2023-05-21T16:42:40.277Z,28.19
2023-05-21T16:45:24.247Z,28.39
2023-05-21T16:48:04.287Z,28.42
2023-05-21T16:50:41.836Z,28.45
2023-05-21T16:53:17.044Z,28.28
2023-05-21T16:55:52.853Z,28.57
2023-05-21T16:58:25.626Z,28.65
2023-05-21T17:00:59.828Z,28.58
2023-05-21T17:03:32.971Z,28.42
2023-05-21T17:06:06.777Z,28.62
2023-05-21T17:08:39.590Z,28.51
2023-05-21T17:11:14.101Z,28.59
2023-05-21T17:13:53.306Z,28.59
2023-05-21T17:16:27.721Z,28.58
2023-05-21T17:19:01.182Z,28.72
2023-05-21T17:21:33.917Z,28.64
2023-05-21T17:24:06.744Z,28.75
2023-05-21T17:26:39.475Z,29.01
2023-05-21T17:29:12.358Z,28.69
2023-05-21T17:31:49.534Z,28.85
2023-05-21T17:34:29.457Z,29.13
2023-05-21T17:37:19.045Z,29.19
2023-05-21T17:39:52.786Z,29.23
2023-05-21T17:42:28.305Z,29.35
2023-05-21T17:45:04.141Z,29.44
2023-05-21T17:47:42.127Z,29.20
2023-05-21T17:50:20.407Z,29.36
2023-05-21T17:52:53.066Z,29.49
2023-05-21T17:55:25.817Z,29.63
2023-05-21T17:58:01.879Z,29.38
2023-05-21T18:00:34.811Z,29.59
2023-05-21T18:03:12.210Z,29.52
2023-05-21T18:05:46.255Z,29.52
2023-05-21T18:08:21.326Z,29.65
2023-05-21T18:10:59.608Z,29.77
2023-05-21T18:13:36.254Z,29.92
2023-05-21T18:16:22.631Z,29.99
2023-05-21T18:18:59.814Z,29.74
2023-05-21T18:21:32.639Z,29.93
2023-05-21T18:24:06.275Z,30.25
2023-05-21T18:26:39.027Z,30.25
2023-05-21T18:29:13.149Z,30.07
2023-05-21T18:31:46.062Z,30.24
2023-05-21T18:34:20.174Z,30.03
2023-05-21T18:36:54.526Z,30.19
2023-05-21T18:39:28.130Z,30.26
2023-05-21T18:42:12.721Z,30.21
2023-05-21T18:44:46.875Z,30.32
2023-05-21T18:47:19.613Z,30.42
2023-05-21T18:49:53.836Z,30.29
2023-05-21T18:52:27.902Z,30.34
2023-05-21T18:55:00.728Z,30.35
2023-05-21T18:57:34.802Z,30.57
2023-05-21T19:00:09.540Z,30.60
2023-05-21T19:02:43.149Z,30.60
2023-05-21T19:05:17.591Z,30.79
2023-05-21T19:07:50.397Z,30.86
2023-05-21T19:10:23.167Z,30.85
2023-05-21T19:12:57.049Z,30.94
2023-05-21T19:15:29.727Z,31.03
2023-05-21T19:18:03.729Z,31.17
2023-05-21T19:20:38.044Z,30.99
2023-05-21T19:23:10.980Z,30.92
2023-05-21T19:25:43.667Z,31.16
2023-05-21T19:28:16.414Z,31.19
2023-05-21T19:30:49.172Z,31.39
2023-05-21T19:33:22.082Z,31.19
2023-05-21T19:35:56.301Z,31.22
2023-05-21T19:38:29.106Z,31.27
2023-05-21T19:41:02.081Z,31.54
2023-05-21T19:43:34.764Z,31.32
2023-05-21T19:46:09.839Z,31.33
2023-05-21T19:48:42.754Z,31.80
2023-05-21T19:51:17.011Z,31.56
2023-05-21T19:53:49.819Z,31.54
2023-05-21T19:56:22.982Z,31.93
2023-05-21T19:58:55.683Z,31.65
2023-05-21T20:01:29.186Z,31.75
2023-05-21T20:04:02.254Z,31.91
2023-05-21T20:06:36.524Z,31.96
2023-05-21T20:09:10.843Z,31.95
2023-05-21T20:11:43.546Z,32.03
2023-05-21T20:14:16.332Z,31.93
2023-05-21T20:16:49.293Z,31.98
2023-05-21T20:19:22.467Z,32.27
2023-05-21T20:21:56.801Z,32.29
2023-05-21T20:24:29.616Z,32.33
2023-05-21T20:27:02.561Z,32.26
2023-05-21T20:29:35.218Z,32.16
2023-05-21T20:32:11.090Z,32.22
2023-05-21T20:35:01.639Z,32.57
2023-05-21T20:37:39.204Z,32.56
2023-05-21T20:40:14.808Z,32.48
2023-05-21T20:42:50.323Z,32.57
2023-05-21T20:45:25.444Z,32.62
2023-05-21T20:47:58.374Z,32.60
2023-05-21T20:50:31.088Z,32.68
2023-05-21T20:53:05.124Z,32.38
2023-05-21T20:55:37.775Z,32.57
2023-05-21T20:58:10.679Z,32.87
2023-05-21T21:00:47.133Z,32.56
2023-05-21T21:03:21.587Z,32.96
2023-05-21T21:05:56.432Z,32.87
2023-05-21T21:08:34.773Z,32.86
2023-05-21T21:11:08.816Z,33.37
2023-05-21T21:13:41.735Z,33.62
2023-05-21T21:16:17.478Z,34.34
2023-05-21T21:18:52.416Z,34.74
2023-05-21T21:21:25.162Z,35.03
2023-05-21T21:24:00.619Z,34.79
2023-05-21T21:26:33.359Z,34.62
2023-05-21T21:29:06.091Z,34.23
2023-05-21T21:31:38.743Z,34.38
2023-05-21T21:34:13.580Z,34.29
2023-05-21T21:36:46.714Z,34.27
2023-05-21T21:39:23.154Z,34.13
2023-05-21T21:41:55.841Z,34.01
2023-05-21T21:44:28.555Z,33.96
2023-05-21T21:47:04.171Z,34.16
2023-05-21T21:49:36.852Z,33.95
2023-05-21T21:52:10.840Z,34.07
2023-05-21T21:54:46.745Z,34.09
2023-05-21T21:57:19.726Z,34.06
2023-05-21T21:59:52.417Z,34.05
2023-05-21T22:02:25.269Z,34.09
2023-05-21T22:04:58.151Z,34.07
2023-05-21T22:07:32.907Z,34.28
2023-05-21T22:10:07.730Z,34.42
2023-05-21T22:12:43.611Z,34.16
2023-05-21T22:15:20.571Z,34.32
2023-05-21T22:17:55.737Z,34.26
2023-05-21T22:20:29.287Z,34.35
2023-05-21T22:23:03.285Z,34.54
2023-05-21T22:25:37.323Z,34.38
2023-05-21T22:28:12.468Z,34.68
2023-05-21T22:30:45.195Z,34.60
2023-05-21T22:33:19.268Z,34.45
2023-05-21T22:35:52.006Z,34.54
2023-05-21T22:38:24.781Z,34.58
2023-05-21T22:40:58.809Z,34.72
2023-05-21T22:43:31.635Z,34.77
2023-05-21T22:46:04.416Z,34.66
2023-05-21T22:48:37.390Z,34.69
2023-05-21T22:51:11.346Z,34.83
2023-05-21T22:53:44.047Z,34.70
2023-05-21T22:56:20.019Z,34.77
2023-05-21T22:58:52.771Z,34.70
2023-05-21T23:01:28.347Z,34.92
2023-05-21T23:04:03.198Z,34.82
2023-05-21T23:06:35.941Z,34.89
2023-05-21T23:09:10.705Z,34.92
2023-05-21T23:11:47.297Z,35.05
2023-05-21T23:14:21.876Z,35.08
2023-05-21T23:16:54.739Z,35.27
2023-05-21T23:19:27.707Z,35.16
2023-05-21T23:22:01.415Z,35.31
2023-05-21T23:24:35.150Z,35.23
2023-05-21T23:27:09.238Z,35.31
2023-05-21T23:29:41.898Z,35.39
2023-05-21T23:32:14.641Z,35.58
2023-05-21T23:34:48.368Z,35.73
2023-05-21T23:37:22.560Z,35.57
2023-05-21T23:39:57.284Z,35.75
2023-05-21T23:42:31.319Z,35.88
2023-05-21T23:45:04.005Z,35.87
2023-05-21T23:47:37.235Z,35.83
2023-05-21T23:50:10.315Z,35.92
2023-05-21T23:52:43.202Z,35.88
2023-05-21T23:55:18.274Z,35.93
2023-05-21T23:57:52.306Z,35.98
